Time;durP1;ratioP1;P1;durP2;ratioP2;P2;SDS_P1;SDS_P2;PMS_P1;PMS_P2;Temp;Humidity;BMP_temperature;BMP_pressure;BME280_temperature;BME280_humidity;BME280_pressure;Samples;Min_cycle;Max_cycle;Signal;HPM_P1;HPM_P2
2021/12/04 00:00:29;;;;;;;19.77;8.67;;;;;;;0.64;80.66;99446.64;3404218;84;98826;-94
2021/12/04 00:05:41;;;;;;;19.87;7.83;;;;;;;0.66;80.51;99443.61;3399592;84;98217;-90
2021/12/04 00:10:43;;;;;;;18.67;8.17;;;;;;;0.70;80.19;99447.20;3408003;84;98411;-94
2021/12/04 00:15:47;;;;;;;17.90;7.77;;;;;;;0.72;80.31;99441.68;3391871;84;98297;-92
2021/12/04 00:20:53;;;;;;;19.30;8.77;;;;;;;0.73;80.12;99435.13;3416034;84;98658;-94
2021/12/04 00:25:57;;;;;;;19.10;8.03;;;;;;;0.73;80.04;99425.66;3379186;84;98554;-96
2021/12/04 00:31:05;;;;;;;16.52;7.90;;;;;;;0.72;80.01;99404.35;3304134;84;5510462;-96
2021/12/04 00:36:25;;;;;;;18.55;7.35;;;;;;;0.78;79.90;99412.48;3408369;84;131421;-95
2021/12/04 00:51:55;;;;;;;17.83;8.17;;;;;;;0.79;79.54;99392.39;3401135;84;98414;-86
2021/12/04 00:57:08;;;;;;;19.10;8.63;;;;;;;0.80;79.72;99396.67;3420082;84;98755;-90
2021/12/04 01:02:09;;;;;;;13.68;7.05;;;;;;;0.80;79.75;99395.32;3405555;84;198209;-92
2021/12/04 01:07:13;;;;;;;15.87;7.60;;;;;;;0.82;79.45;99401.21;3392669;85;98712;-92
2021/12/04 01:12:16;;;;;;;15.08;6.83;;;;;;;0.83;79.76;99398.14;3348531;86;98649;-91
2021/12/04 01:17:17;;;;;;;16.30;6.87;;;;;;;0.85;79.92;99398.61;3359107;85;98292;-94
2021/12/04 01:22:22;;;;;;;17.07;7.87;;;;;;;0.88;80.00;99387.09;3358509;86;98473;-94
2021/12/04 01:27:28;;;;;;;14.47;7.03;;;;;;;0.90;80.34;99388.91;3383881;84;98730;-93
2021/12/04 01:32:29;;;;;;;15.55;7.50;;;;;;;0.92;80.61;99387.20;3387048;84;98195;-89
2021/12/04 01:37:30;;;;;;;21.60;8.63;;;;;;;0.93;80.61;99392.28;3393127;84;143700;-91
2021/12/04 01:42:39;;;;;;;16.13;8.03;;;;;;;0.94;81.14;99385.73;3419452;84;98370;-93
2021/12/04 01:47:41;;;;;;;16.97;7.57;;;;;;;0.92;81.48;99377.72;3416048;84;98166;-96
2021/12/04 01:52:42;;;;;;;19.40;7.40;;;;;;;0.92;81.75;99384.48;3412924;84;98325;-92
2021/12/04 01:57:43;;;;;;;19.30;7.83;;;;;;;0.92;82.21;99379.07;3421512;84;98601;-91
2021/12/04 02:02:47;;;;;;;14.53;7.07;;;;;;;0.91;82.74;99375.59;3418400;84;143120;-89
2021/12/04 02:07:49;;;;;;;16.05;7.20;;;;;;;0.91;82.88;99366.66;3325284;84;5289393;-91
2021/12/04 02:12:52;;;;;;;17.73;7.47;;;;;;;0.88;83.24;99360.59;3408908;84;98921;-91
2021/12/04 02:17:53;;;;;;;17.90;8.00;;;;;;;0.84;83.70;99356.42;3361975;85;114004;-90
2021/12/04 02:23:03;;;;;;;19.40;8.17;;;;;;;0.82;83.88;99349.17;3361123;84;99064;-93
2021/12/04 02:28:06;;;;;;;16.10;6.67;;;;;;;0.79;84.15;99349.88;3418899;84;98677;-91
2021/12/04 02:33:12;;;;;;;18.63;8.80;;;;;;;0.76;84.44;99345.67;3408833;84;98682;-94
2021/12/04 02:38:17;;;;;;;18.30;8.83;;;;;;;0.74;84.93;99344.67;3392419;84;98623;-91
2021/12/04 02:43:18;;;;;;;19.15;8.33;;;;;;;0.71;85.43;99339.16;3399027;84;98848;-89
2021/12/04 02:48:19;;;;;;;17.30;7.17;;;;;;;0.67;85.77;99332.24;3395690;84;112236;-93
2021/12/04 02:53:20;;;;;;;19.10;8.53;;;;;;;0.65;85.81;99329.09;3422123;84;98491;-94
2021/12/04 02:58:22;;;;;;;19.90;8.27;;;;;;;0.65;86.27;99329.64;3411256;84;98959;-89
2021/12/04 03:03:23;;;;;;;21.20;8.53;;;;;;;0.64;86.34;99329.42;3418241;85;102663;-96
2021/12/04 03:08:26;;;;;;;16.00;8.20;;;;;;;0.60;86.65;99323.91;3402570;84;98690;-92
2021/12/04 03:13:27;;;;;;;18.00;8.30;;;;;;;0.59;86.95;99309.34;3341631;84;5385833;-94
2021/12/04 03:18:28;;;;;;;21.67;7.80;;;;;;;0.59;87.37;99309.34;3384106;84;35501;-95
2021/12/04 03:23:31;;;;;;;17.77;8.10;;;;;;;0.58;87.70;99306.41;3382899;84;107039;-94
2021/12/04 03:28:40;;;;;;;19.90;8.63;;;;;;;0.55;88.53;99301.11;3412104;84;42194;-93
2021/12/04 03:44:24;;;;;;;21.03;9.67;;;;;;;0.45;90.62;99292.66;3369869;84;98566;-91
2021/12/04 03:49:25;;;;;;;19.43;9.47;;;;;;;0.37;91.86;99283.52;3411776;85;37215;-89
2021/12/04 03:54:26;;;;;;;18.07;8.80;;;;;;;0.33;92.88;99278.55;3423796;84;98392;-95
2021/12/04 03:59:33;;;;;;;20.47;8.93;;;;;;;0.29;93.34;99276.28;3411490;85;138704;-93
2021/12/04 04:04:35;;;;;;;19.60;9.05;;;;;;;0.25;94.26;99276.75;3422557;84;98890;-96
2021/12/04 04:09:36;;;;;;;20.23;9.53;;;;;;;0.23;94.17;99274.93;3401799;84;125303;-91
2021/12/04 04:14:40;;;;;;;21.30;10.20;;;;;;;0.22;94.84;99263.11;3411461;84;98659;-92
2021/12/04 04:19:41;;;;;;;19.37;9.43;;;;;;;0.24;95.56;99267.03;3416538;84;76133;-91
2021/12/04 04:24:48;;;;;;;21.03;9.40;;;;;;;0.23;95.61;99273.58;3413443;84;187870;-92
2021/12/04 04:29:49;;;;;;;19.47;9.33;;;;;;;0.22;95.67;99266.59;3397788;85;147095;-93
2021/12/04 04:34:54;;;;;;;21.53;10.50;;;;;;;0.22;96.19;99263.89;3431402;84;165564;-96
2021/12/04 05:17:11;;;;;;;22.37;11.20;;;;;;;0.30;98.39;99235.95;3405695;85;105754;-92
2021/12/04 05:22:13;;;;;;;21.00;10.90;;;;;;;0.33;98.45;99236.61;3390718;84;98575;-92
2021/12/04 05:27:14;;;;;;;21.43;10.73;;;;;;;0.35;98.58;99238.98;3381818;85;98835;-93
2021/12/04 05:32:16;;;;;;;26.00;13.47;;;;;;;0.38;98.54;99238.30;3373578;86;99022;-95
2021/12/04 05:37:17;;;;;;;24.93;12.13;;;;;;;0.39;98.84;99242.02;3346144;86;182301;-89
2021/12/04 05:42:18;;;;;;;23.00;11.70;;;;;;;0.40;99.03;99235.47;3378149;86;116952;-93
2021/12/04 05:47:31;;;;;;;27.10;12.87;;;;;;;0.38;98.90;99232.88;3382038;85;97996;-91
2021/12/04 05:52:51;;;;;;;23.20;11.63;;;;;;;0.31;99.19;99221.84;3385920;85;102709;-89
2021/12/04 05:57:40;;;;;;;23.30;11.73;;;;;;;0.44;99.24;99237.73;3393512;84;102339;-96
2021/12/04 06:02:44;;;;;;;21.82;11.60;;;;;;;0.46;99.16;99233.34;3412236;84;99013;-96
2021/12/04 06:07:46;;;;;;;23.67;13.17;;;;;;;0.49;99.29;99225.33;3411415;84;132549;-94
2021/12/04 06:12:47;;;;;;;24.90;12.70;;;;;;;0.51;99.44;99233.89;3362470;84;2152555;-94
2021/12/04 06:17:50;;;;;;;22.03;13.70;;;;;;;0.52;99.89;99235.50;3400367;84;98911;-92
2021/12/04 06:22:50;;;;;;;23.38;13.08;;;;;;;0.52;99.56;99245.52;3416859;84;119736;-96
2021/12/04 06:27:52;;;;;;;25.80;12.53;;;;;;;0.54;99.57;99248.11;3407790;84;132092;-94
2021/12/04 06:32:54;;;;;;;23.10;12.93;;;;;;;0.54;99.65;99245.41;3408404;83;105068;-96
2021/12/04 06:37:55;;;;;;;23.90;13.17;;;;;;;0.57;99.85;99250.16;3411963;84;98902;-92
2021/12/04 06:42:59;;;;;;;24.43;12.17;;;;;;;0.58;100.00;99256.34;3427559;84;166488;-94
2021/12/04 06:48:06;;;;;;;24.17;14.17;;;;;;;0.59;99.86;99260.06;3433487;84;103645;-89
2021/12/04 06:53:57;;;;;;;27.17;12.97;;;;;;;0.60;100.00;99254.10;3387160;84;173446;-94
2021/12/04 06:58:13;;;;;;;24.35;11.38;;;;;;;0.61;100.00;99255.67;3407863;85;143523;-93
2021/12/04 07:03:14;;;;;;;22.20;12.17;;;;;;;0.61;100.00;99262.44;3402453;84;135138;-91
2021/12/04 07:08:16;;;;;;;24.70;13.57;;;;;;;0.62;100.00;99254.54;3408670;84;1677110;-94
2021/12/04 07:13:17;;;;;;;24.52;12.33;;;;;;;0.60;100.00;99257.58;3416988;84;222335;-90
2021/12/04 07:18:18;;;;;;;27.77;13.70;;;;;;;0.60;100.00;99245.98;3393535;84;121666;-91
2021/12/04 07:23:19;;;;;;;25.80;12.90;;;;;;;0.60;100.00;99246.75;3400348;84;145565;-91
2021/12/04 07:28:20;;;;;;;30.07;15.87;;;;;;;0.62;100.00;99249.90;3410976;84;109508;-91
2021/12/04 07:33:21;;;;;;;29.87;16.00;;;;;;;0.66;100.00;99254.09;3387785;84;123638;-94
2021/12/04 07:38:22;;;;;;;28.27;15.20;;;;;;;0.66;100.00;99258.16;3397979;84;99441;-93
2021/12/04 07:43:23;;;;;;;25.73;14.20;;;;;;;0.64;100.00;99255.78;3391240;84;98691;-92
2021/12/04 07:48:24;;;;;;;25.53;13.50;;;;;;;0.63;100.00;99252.05;3405531;84;98713;-91
2021/12/04 07:53:25;;;;;;;28.87;14.80;;;;;;;0.61;100.00;99245.62;3399645;84;150166;-90
2021/12/04 07:58:26;;;;;;;28.47;16.07;;;;;;;0.59;100.00;99249.23;3369991;84;136726;-89
2021/12/04 08:03:27;;;;;;;23.73;12.37;;;;;;;0.58;100.00;99248.22;3400636;84;139157;-92
2021/12/04 08:08:27;;;;;;;27.23;13.73;;;;;;;0.57;100.00;99248.80;3400710;84;99156;-89
2021/12/04 08:13:28;;;;;;;29.47;14.37;;;;;;;0.57;100.00;99238.53;3401222;84;191159;-89
2021/12/04 08:18:29;;;;;;;25.17;14.10;;;;;;;0.58;100.00;99243.61;3405974;84;109256;-89
2021/12/04 08:23:30;;;;;;;26.63;13.33;;;;;;;0.60;100.00;99239.98;3395521;85;106539;-92
2021/12/04 08:28:31;;;;;;;34.03;15.50;;;;;;;0.60;100.00;99243.27;3420312;84;99167;-89
2021/12/04 08:33:32;;;;;;;23.87;13.77;;;;;;;0.64;100.00;99248.21;3409497;84;110705;-89
2021/12/04 08:38:35;;;;;;;27.97;13.53;;;;;;;0.67;100.00;99253.73;3402377;84;255381;-92
2021/12/04 08:43:36;;;;;;;25.00;13.87;;;;;;;0.69;100.00;99247.98;3390297;84;221753;-88
2021/12/04 08:48:40;;;;;;;28.87;15.33;;;;;;;0.71;100.00;99252.52;3396981;84;101261;-93
2021/12/04 08:53:41;;;;;;;25.85;12.35;;;;;;;0.68;100.00;99245.06;3400629;84;113953;-90
2021/12/04 08:58:42;;;;;;;27.80;13.60;;;;;;;0.75;100.00;99263.67;3373052;85;141383;-93
2021/12/04 09:03:50;;;;;;;25.83;12.40;;;;;;;0.77;100.00;99260.63;3369769;84;218147;-93
2021/12/04 09:08:50;;;;;;;30.27;14.33;;;;;;;0.80;100.00;99268.05;3411051;84;140594;-92
2021/12/04 09:13:53;;;;;;;28.23;13.90;;;;;;;0.83;100.00;99272.80;3415629;84;98731;-94
2021/12/04 09:18:55;;;;;;;27.57;13.30;;;;;;;0.85;100.00;99274.59;3437217;84;173972;-94
2021/12/04 09:24:12;;;;;;;25.68;13.00;;;;;;;0.87;100.00;99272.32;3403613;84;153672;-88
2021/12/04 10:12:07;;;;;;;30.17;14.93;;;;;;;1.02;100.00;99274.33;3378678;84;99174;-86
2021/12/04 10:22:32;;;;;;;23.77;13.18;;;;;;;1.09;100.00;99252.31;3382334;84;99026;-90
2021/12/04 10:32:56;;;;;;;29.37;13.90;;;;;;;1.11;100.00;99259.52;3320996;83;5411103;-87
2021/12/04 10:38:05;;;;;;;26.57;13.63;;;;;;;1.12;100.00;99255.70;3327146;86;70024;-88
2021/12/04 10:43:14;;;;;;;32.93;15.20;;;;;;;1.15;100.00;99254.23;3341014;86;99127;-87
2021/12/04 10:48:33;;;;;;;26.90;13.00;;;;;;;1.17;100.00;99247.89;3299542;86;2168298;-91
2021/12/04 10:53:46;;;;;;;26.70;13.10;;;;;;;0.99;99.98;99217.56;3282421;87;106394;-87
2021/12/04 11:03:58;;;;;;;23.67;12.45;;;;;;;1.23;99.95;99245.16;3297431;84;5045161;-90
2021/12/04 11:36:24;;;;;;;27.52;13.60;;;;;;;1.34;99.93;99223.21;3378568;84;171168;-86
2021/12/04 11:46:45;;;;;;;32.98;18.52;;;;;;;1.38;99.87;99215.39;3388637;84;289481;-88
2021/12/04 11:52:14;;;;;;;27.87;16.20;;;;;;;1.40;99.78;99216.41;3387554;85;98921;-88
2021/12/04 11:57:29;;;;;;;;;;;;;;;;;;;;;
2021/12/04 12:02:33;;;;;;;24.80;13.93;;;;;;;1.48;99.65;99216.25;3275446;84;6130903;-86
2021/12/04 12:07:33;;;;;;;30.50;15.13;;;;;;;1.54;99.72;99214.09;3353421;84;2061485;-86
2021/12/04 12:12:39;;;;;;;33.07;16.53;;;;;;;1.55;99.55;99199.40;3420090;84;99121;-87
2021/12/04 12:17:45;;;;;;;34.33;17.13;;;;;;;1.58;99.52;99187.29;3410829;84;99069;-86
2021/12/04 12:22:56;;;;;;;28.47;14.63;;;;;;;1.58;99.48;99190.58;3396601;84;105899;-86
2021/12/04 12:38:58;;;;;;;30.13;15.20;;;;;;;1.59;99.45;99179.37;3390737;84;196513;-86
2021/12/04 12:44:29;;;;;;;27.27;14.77;;;;;;;1.50;99.38;99162.50;3387524;84;121761;-87
2021/12/04 12:49:38;;;;;;;23.87;13.70;;;;;;;1.61;99.53;99168.18;3401145;84;98701;-86
2021/12/04 12:54:47;;;;;;;30.60;15.50;;;;;;;1.65;99.31;99162.29;3343870;85;98797;-88
2021/12/04 13:16:20;;;;;;;25.53;15.53;;;;;;;1.63;99.27;99155.05;3400728;84;98790;-85
2021/12/04 13:21:21;;;;;;;26.97;14.37;;;;;;;1.63;99.34;99146.36;3393122;83;62874;-86
2021/12/04 13:26:33;;;;;;;30.10;15.33;;;;;;;1.64;99.39;99149.88;3375922;84;172121;-86
2021/12/04 13:31:38;;;;;;;28.43;15.67;;;;;;;1.67;99.40;99135.05;3412361;84;98830;-88
2021/12/04 13:36:45;;;;;;;57.03;24.50;;;;;;;1.67;99.30;99147.25;3404812;84;98740;-89
2021/12/04 13:41:49;;;;;;;41.53;22.25;;;;;;;1.66;98.97;99132.13;3417824;84;99137;-86
2021/12/04 13:47:00;;;;;;;56.77;26.27;;;;;;;1.66;98.97;99132.13;3386329;84;98844;-89
2021/12/04 13:52:11;;;;;;;61.33;26.57;;;;;;;1.63;99.15;99125.23;3406178;84;154798;-89
2021/12/04 13:57:14;;;;;;;72.55;30.43;;;;;;;1.67;99.21;99122.05;3367980;84;2427187;-88
2021/12/04 14:02:22;;;;;;;43.17;21.70;;;;;;;1.69;99.06;99125.22;3384181;84;251444;-88
2021/12/04 14:07:24;;;;;;;39.65;19.65;;;;;;;1.70;98.97;99122.13;3394646;84;203368;-87
2021/12/04 14:12:31;;;;;;;35.87;20.13;;;;;;;1.71;98.93;99127.77;3406144;84;98926;-86
2021/12/04 14:17:32;;;;;;;33.30;18.27;;;;;;;1.74;98.84;99150.69;3409631;84;99374;-87
2021/12/04 14:22:38;;;;;;;39.97;20.83;;;;;;;1.73;98.74;99153.19;3410160;84;98864;-87
2021/12/04 14:27:41;;;;;;;40.00;20.07;;;;;;;1.73;98.76;99151.83;3399085;84;187658;-88
2021/12/04 14:32:46;;;;;;;39.77;21.33;;;;;;;1.69;98.72;99138.77;3361262;84;2546817;-88
2021/12/04 14:37:51;;;;;;;39.33;19.40;;;;;;;1.72;98.72;99138.06;3384663;84;224920;-88
2021/12/04 14:42:54;;;;;;;27.93;14.37;;;;;;;1.79;98.55;99139.58;3399174;84;196086;-88
2021/12/04 14:48:12;;;;;;;38.90;19.50;;;;;;;1.82;98.47;99141.61;3404099;84;135893;-90
2021/12/04 14:53:17;;;;;;;30.63;14.83;;;;;;;1.83;98.50;99143.98;3390184;84;99350;-88
2021/12/04 14:58:24;;;;;;;32.00;16.53;;;;;;;1.83;98.46;99134.48;3398410;84;281844;-89
2021/12/04 15:03:43;;;;;;;32.83;15.47;;;;;;;1.83;98.38;99152.67;3370173;84;99009;-89
2021/12/04 15:09:04;;;;;;;30.88;16.37;;;;;;;1.85;98.30;99158.52;3400158;84;98554;-89
2021/12/04 15:14:12;;;;;;;30.37;16.37;;;;;;;1.86;98.22;99171.74;3402262;84;133832;-87
2021/12/04 15:19:37;;;;;;;28.03;13.93;;;;;;;1.88;98.14;99184.41;3412324;84;98876;-88
2021/12/04 15:24:38;;;;;;;183.33;56.87;;;;;;;1.91;97.97;99186.40;3389773;84;99240;-88
2021/12/04 15:29:39;;;;;;;59.83;24.25;;;;;;;1.92;97.88;99185.26;3392822;84;99310;-87
2021/12/04 15:35:00;;;;;;;59.13;24.70;;;;;;;1.93;97.72;99180.63;3400537;84;98742;-88
2021/12/04 15:39:54;;;;;;;51.10;21.17;;;;;;;1.92;97.62;99179.06;3398097;85;47967;-88
2021/12/04 15:45:15;;;;;;;44.30;17.80;;;;;;;1.90;97.57;99179.41;3396727;85;98654;-88
2021/12/04 15:55:44;;;;;;;26.83;14.20;;;;;;;1.88;97.33;99161.91;3402470;84;98594;-86
2021/12/04 16:00:56;;;;;;;27.73;14.25;;;;;;;1.87;97.11;99153.55;3403173;84;99112;-86
2021/12/04 16:06:01;;;;;;;35.33;16.40;;;;;;;1.86;96.96;99151.98;3377289;84;98699;-87
2021/12/04 16:11:05;;;;;;;35.40;19.30;;;;;;;1.81;97.12;99141.39;3418882;84;98701;-85
2021/12/04 16:16:17;;;;;;;36.60;19.27;;;;;;;1.82;97.08;99136.19;3391492;84;98724;-87
2021/12/04 16:21:20;;;;;;;41.67;19.97;;;;;;;1.69;97.02;99135.47;3425623;84;46198;-87
2021/12/04 16:26:25;;;;;;;49.20;22.20;;;;;;;1.64;97.25;99144.45;3413218;84;98591;-87
2021/12/04 16:31:51;;;;;;;44.00;20.77;;;;;;;1.63;97.35;99152.34;3352631;86;98957;-86
2021/12/04 16:36:44;;;;;;;43.37;22.17;;;;;;;1.61;97.26;99162.76;3356141;86;98832;-86
2021/12/04 16:41:53;;;;;;;;;;;;;;;1.54;97.22;99168.78;3366422;86;98707;-86
2021/12/04 16:46:50;;;;;;;47.90;22.97;;;;;;;1.54;97.36;99169.36;3342639;86;83817;-85
2021/12/04 17:02:21;;;;;;;41.30;21.17;;;;;;;1.47;97.14;99172.66;3423314;84;98722;-86
2021/12/04 17:07:24;;;;;;;40.15;22.05;;;;;;;1.44;97.09;99176.64;3393369;84;98726;-87
2021/12/04 17:12:25;;;;;;;73.75;31.37;;;;;;;1.45;97.23;99176.86;3404053;84;98747;-85
2021/12/04 17:17:29;;;;;;;61.13;30.80;;;;;;;1.46;97.14;99187.91;3364872;84;98665;-86
2021/12/04 17:22:29;;;;;;;45.90;22.62;;;;;;;1.48;97.15;99191.08;3399672;84;98700;-84
2021/12/04 17:27:30;;;;;;;46.00;22.67;;;;;;;1.46;96.99;99181.14;3391446;84;32807;-85
2021/12/04 17:32:31;;;;;;;41.53;21.10;;;;;;;1.41;96.86;99166.48;3360560;85;98618;-86
2021/12/04 17:37:32;;;;;;;44.73;22.30;;;;;;;1.38;96.72;99158.47;3378837;85;98788;-86
2021/12/04 17:42:36;;;;;;;41.50;19.50;;;;;;;1.38;96.79;99164.48;3364507;86;98853;-86
2021/12/04 17:47:41;;;;;;;38.80;18.63;;;;;;;1.36;96.73;99155.89;3389716;84;98676;-86
2021/12/04 17:52:41;;;;;;;34.97;16.60;;;;;;;1.37;96.62;99157.48;3403725;84;98421;-86
2021/12/04 17:57:42;;;;;;;34.97;16.20;;;;;;;1.35;96.53;99151.05;3446105;84;31720;-85
2021/12/04 18:02:43;;;;;;;38.10;17.83;;;;;;;1.29;96.42;99140.25;3392426;84;98571;-84
2021/12/04 18:07:44;;;;;;;36.83;16.73;;;;;;;1.21;96.23;99128.21;3424492;84;98637;-85
2021/12/04 18:12:51;;;;;;;36.43;18.07;;;;;;;1.13;96.42;99119.10;3410314;84;98633;-85
2021/12/04 18:17:51;;;;;;;38.00;18.87;;;;;;;1.08;96.29;99107.71;3422553;84;98728;-88
2021/12/04 18:22:54;;;;;;;53.87;23.63;;;;;;;1.02;96.43;99104.48;3393398;84;98863;-86
2021/12/04 18:28:02;;;;;;;42.63;20.30;;;;;;;0.97;96.42;99108.79;3424653;84;25986;-86
2021/12/04 18:33:02;;;;;;;36.13;17.80;;;;;;;0.93;96.48;99105.19;3424542;84;98786;-84
2021/12/04 18:38:08;;;;;;;36.10;16.97;;;;;;;0.86;96.47;99099.59;3414608;84;98496;-86
2021/12/04 18:43:24;;;;;;;36.57;18.30;;;;;;;0.82;96.60;99100.63;3387700;84;98789;-87
2021/12/04 18:48:27;;;;;;;51.20;23.57;;;;;;;0.75;96.59;99104.47;3391434;84;98656;-86
2021/12/04 18:53:28;;;;;;;47.83;24.03;;;;;;;0.70;96.67;99104.71;3421966;84;98781;-85
2021/12/04 18:58:28;;;;;;;51.13;25.07;;;;;;;0.67;96.80;99121.08;3428021;84;98695;-87
2021/12/04 19:03:29;;;;;;;53.33;25.20;;;;;;;0.59;96.86;99121.22;3382855;84;98561;-88
2021/12/04 19:08:32;;;;;;;90.97;38.28;;;;;;;0.53;96.88;99130.70;3428269;84;98525;-88
2021/12/04 19:13:33;;;;;;;53.87;28.47;;;;;;;0.50;97.09;99131.41;3428424;84;98806;-87
2021/12/04 19:18:34;;;;;;;55.97;24.80;;;;;;;0.45;97.09;99135.70;3424651;84;98665;-87
2021/12/04 19:23:38;;;;;;;39.53;19.23;;;;;;;0.43;97.21;99143.35;3419112;84;98798;-87
2021/12/04 19:28:40;;;;;;;45.50;20.25;;;;;;;0.36;97.17;99131.77;3378845;84;98751;-87
2021/12/04 19:54:45;;;;;;;52.77;21.80;;;;;;;0.09;97.99;99120.86;3371650;84;99450;-87
2021/12/04 19:59:43;;;;;;;42.33;21.17;;;;;;;0.07;97.99;99122.55;3416364;84;98810;-86
2021/12/04 20:05:22;;;;;;;43.03;19.27;;;;;;;0.03;97.96;99120.87;3405494;84;98836;-88
2021/12/04 20:13:06;;;;;;;46.45;20.80;;;;;;;0.01;98.13;99117.72;3394805;84;41320;-88
2021/12/04 20:15:16;;;;;;;50.67;24.23;;;;;;;-0.03;98.16;99111.41;3386386;84;123108;-89
2021/12/04 20:20:23;;;;;;;49.80;28.07;;;;;;;-0.07;98.36;99093.73;3398055;84;140469;-88
2021/12/04 20:25:35;;;;;;;61.87;35.70;;;;;;;-0.12;98.46;99082.92;3413767;84;99022;-87
2021/12/04 21:07:46;;;;;;;61.37;30.13;;;;;;;-0.37;98.96;99123.44;3398056;84;33811;-88
2021/12/04 21:50:06;;;;;;;66.33;31.40;;;;;;;-0.66;99.49;99072.09;3421038;84;98212;-88
2021/12/04 22:11:08;;;;;;;61.30;25.60;;;;;;;-0.71;99.70;99056.09;3411942;84;98607;-89
2021/12/04 22:58:24;;;;;;;71.27;30.30;;;;;;;-0.80;99.91;99091.30;3386462;84;98943;-88
2021/12/04 23:04:07;;;;;;;87.65;37.53;;;;;;;-0.80;99.96;99084.55;3408523;84;98984;-89
2021/12/04 23:14:17;;;;;;;55.40;25.23;;;;;;;-0.83;100.00;99098.71;3422099;84;99518;-89
2021/12/04 23:19:47;;;;;;;65.67;29.37;;;;;;;-0.81;100.00;99109.19;3391803;84;125587;-89
2021/12/04 23:32:16;;;;;;;58.28;27.02;;;;;;;-0.83;99.94;99101.41;3412959;84;99821;-91
2021/12/04 23:35:30;;;;;;;59.40;26.30;;;;;;;-0.93;99.99;99088.33;3397215;84;99241;-90
2021/12/04 23:45:59;;;;;;;49.43;24.67;;;;;;;-0.97;100.00;99092.04;3364936;84;99196;-89
